Search for airport 
image banner adimage banner adimage banner ad
image banner ad

24PN - A H Butz Downtown Allentown

Located in Allentown, United States

ICAO - 24PN, IATA -

Data provided by Airmate  

General information

Coordinates: N40°36'4" W75°28'30"
Elevation is 456 feet MSL.
 
View others Airports in Pennsylvania

Operational data

Special qualification required
Current time UTC:
Current local time:
Weather at : KXLL - Allentown Queen City Muni ( 4 km )
METAR: KXLL 071315Z AUTO 05008KT 10SM CLR 12/01 A2993 RMK AO2
View NOTAMs / SUP AIP / TFR affecting this airport [VIEW]
Communications frequencies: [VIEW]

Runways:

Airport contact information

Address: Allentown United States

Satellite view of 24PN